createdAt,value
2018-04-30T00:00:34.637Z,0.00
2018-04-30T00:01:34.687Z,0.00
2018-04-30T00:02:34.768Z,0.00
2018-04-30T00:03:34.787Z,0.00
2018-04-30T00:04:34.838Z,0.00
2018-04-30T00:05:34.891Z,0.00
2018-04-30T00:06:34.939Z,0.00
2018-04-30T00:07:35.015Z,0.00
2018-04-30T00:08:35.046Z,0.00
2018-04-30T00:09:35.096Z,0.00
2018-04-30T00:10:35.144Z,0.00
2018-04-30T00:11:35.195Z,0.00
2018-04-30T00:12:35.275Z,0.00
2018-04-30T00:13:35.295Z,0.00
2018-04-30T00:14:35.372Z,0.00
2018-04-30T00:15:35.398Z,0.00
2018-04-30T00:16:35.449Z,0.00
2018-04-30T00:17:35.536Z,0.00
2018-04-30T00:18:35.558Z,0.00
2018-04-30T00:19:35.601Z,0.00
2018-04-30T00:20:35.654Z,0.00
2018-04-30T00:21:35.702Z,0.00
2018-04-30T00:22:35.783Z,0.00
2018-04-30T00:23:35.803Z,0.00
2018-04-30T00:24:35.883Z,0.00
2018-04-30T00:25:35.905Z,0.00
2018-04-30T00:26:35.955Z,0.00
2018-04-30T00:27:36.005Z,0.00
2018-04-30T00:28:36.085Z,0.00
2018-04-30T00:29:36.106Z,0.00
2018-04-30T00:30:36.156Z,0.00
2018-04-30T00:31:36.207Z,0.00
2018-04-30T00:32:36.259Z,0.00
2018-04-30T00:33:36.348Z,0.00
2018-04-30T00:34:36.401Z,0.00
2018-04-30T00:35:36.410Z,0.00
2018-04-30T00:36:36.459Z,0.00
2018-04-30T00:37:36.510Z,0.00
2018-04-30T00:38:36.589Z,0.00
2018-04-30T00:39:36.607Z,0.00
2018-04-30T00:40:36.658Z,0.00
2018-04-30T00:41:36.710Z,0.00
2018-04-30T00:42:36.759Z,0.00
2018-04-30T00:43:36.832Z,0.00
2018-04-30T00:44:36.858Z,0.00
2018-04-30T00:45:36.934Z,0.00
2018-04-30T00:46:36.956Z,0.00
2018-04-30T00:47:37.008Z,0.00
2018-04-30T00:48:37.115Z,0.00
2018-04-30T00:49:37.108Z,0.00
2018-04-30T00:50:37.180Z,0.00
2018-04-30T00:51:37.210Z,0.00
2018-04-30T00:52:37.310Z,0.00
2018-04-30T00:53:37.309Z,0.00
2018-04-30T00:54:37.356Z,0.00
2018-04-30T00:55:37.431Z,0.00
2018-04-30T00:56:37.454Z,0.00
2018-04-30T00:57:37.507Z,0.00
2018-04-30T00:58:37.553Z,0.00
2018-04-30T00:59:37.607Z,0.00
2018-04-30T01:00:37.692Z,0.00
2018-04-30T01:01:37.703Z,0.00
2018-04-30T01:02:37.752Z,0.00
2018-04-30T01:03:37.809Z,0.00
2018-04-30T01:04:37.853Z,0.00
2018-04-30T01:05:37.935Z,0.00
2018-04-30T01:06:37.951Z,0.00
2018-04-30T01:07:38.003Z,0.00
2018-04-30T01:08:38.049Z,0.00
2018-04-30T01:09:38.098Z,0.00
2018-04-30T01:10:38.178Z,0.00
2018-04-30T01:11:38.205Z,0.00
2018-04-30T01:12:38.248Z,0.00
2018-04-30T01:13:38.295Z,0.00
2018-04-30T01:14:38.346Z,0.00
2018-04-30T01:15:38.417Z,0.00
2018-04-30T01:16:38.445Z,0.00
2018-04-30T01:17:38.515Z,0.00
2018-04-30T01:18:38.541Z,0.00
2018-04-30T01:19:38.592Z,0.00
2018-04-30T01:20:38.640Z,0.00
2018-04-30T01:21:38.689Z,0.00
2018-04-30T01:22:38.761Z,0.00
2018-04-30T01:23:38.787Z,0.00
2018-04-30T01:24:38.852Z,0.00
2018-04-30T01:25:38.888Z,0.00
2018-04-30T01:26:38.937Z,0.00
2018-04-30T01:27:39.017Z,0.00
2018-04-30T01:28:39.037Z,0.00
2018-04-30T01:29:39.081Z,0.00
2018-04-30T01:30:39.131Z,0.00
2018-04-30T01:31:39.182Z,0.00
2018-04-30T01:32:39.265Z,0.00
2018-04-30T01:33:39.279Z,0.00
2018-04-30T01:34:39.330Z,0.00
2018-04-30T01:35:39.377Z,0.00
2018-04-30T01:36:39.426Z,0.00
2018-04-30T01:37:39.497Z,0.00
2018-04-30T01:38:39.550Z,0.00
2018-04-30T01:39:39.575Z,0.00
2018-04-30T01:40:39.621Z,0.00
2018-04-30T01:41:39.679Z,0.00
2018-04-30T01:42:39.721Z,0.00
2018-04-30T01:43:39.800Z,0.00
2018-04-30T01:44:39.817Z,0.00
2018-04-30T01:45:39.864Z,0.00
2018-04-30T01:46:39.915Z,0.00
2018-04-30T01:47:39.964Z,0.00
2018-04-30T01:48:40.043Z,0.00
2018-04-30T01:49:40.060Z,0.00
2018-04-30T01:50:40.109Z,0.00
2018-04-30T01:51:40.159Z,0.00
2018-04-30T01:52:40.207Z,0.00
2018-04-30T01:53:40.281Z,0.00
2018-04-30T01:54:40.329Z,0.00
2018-04-30T01:55:40.355Z,0.00
2018-04-30T01:56:40.403Z,0.00
2018-04-30T01:57:40.451Z,0.00
2018-04-30T01:58:40.501Z,0.00
2018-04-30T01:59:40.579Z,0.00
2018-04-30T02:00:40.600Z,0.00
2018-04-30T02:01:40.645Z,0.00
2018-04-30T02:02:40.706Z,0.00
2018-04-30T02:03:40.744Z,0.00
2018-04-30T02:04:40.830Z,0.00
2018-04-30T02:05:40.841Z,0.00
2018-04-30T02:06:40.891Z,0.00
2018-04-30T02:07:40.944Z,0.00
2018-04-30T02:08:40.987Z,0.00
2018-04-30T02:09:41.060Z,0.00
2018-04-30T02:10:41.085Z,0.00
2018-04-30T02:11:41.163Z,0.00
2018-04-30T02:12:41.183Z,0.00
2018-04-30T02:13:41.236Z,0.00
2018-04-30T02:14:41.282Z,0.00
2018-04-30T02:15:41.331Z,0.00
2018-04-30T02:16:41.400Z,0.00
2018-04-30T02:17:41.478Z,0.00
2018-04-30T02:18:41.477Z,0.00
2018-04-30T02:19:41.524Z,0.00
2018-04-30T02:20:41.571Z,0.00
2018-04-30T02:21:41.647Z,0.00
2018-04-30T02:22:41.691Z,0.00
2018-04-30T02:23:41.715Z,0.00
2018-04-30T02:24:41.766Z,0.00
2018-04-30T02:25:41.811Z,0.00
2018-04-30T02:26:41.882Z,0.00
2018-04-30T02:27:41.940Z,0.00
2018-04-30T02:28:41.954Z,0.00
2018-04-30T02:29:42.002Z,0.00
2018-04-30T02:30:42.050Z,0.00
2018-04-30T02:31:42.098Z,0.00
2018-04-30T02:32:42.172Z,0.00
2018-04-30T02:33:42.289Z,0.00
2018-04-30T02:34:42.245Z,0.00
2018-04-30T02:35:42.291Z,0.00
2018-04-30T02:36:42.345Z,0.00
2018-04-30T02:37:42.411Z,0.00
2018-04-30T02:38:42.460Z,0.00
2018-04-30T02:39:42.485Z,0.00
2018-04-30T02:40:42.529Z,0.00
2018-04-30T02:41:42.576Z,0.00
2018-04-30T02:42:42.624Z,0.00
2018-04-30T02:43:42.699Z,0.00
2018-04-30T02:44:42.721Z,0.00
2018-04-30T02:45:42.768Z,0.00
2018-04-30T02:46:42.815Z,0.00
2018-04-30T02:47:42.863Z,0.00
2018-04-30T02:48:42.934Z,0.00
2018-04-30T02:49:42.956Z,0.00
2018-04-30T02:50:43.004Z,0.00
2018-04-30T02:51:43.058Z,0.00
2018-04-30T02:52:43.103Z,0.00
2018-04-30T02:53:43.180Z,0.00
2018-04-30T02:54:43.193Z,0.00
2018-04-30T02:55:43.242Z,0.00
2018-04-30T02:56:43.290Z,0.00
2018-04-30T02:57:43.337Z,0.00
2018-04-30T02:58:43.423Z,0.00
2018-04-30T02:59:43.433Z,0.00
2018-04-30T03:00:43.481Z,0.00
2018-04-30T03:01:43.527Z,0.00
2018-04-30T03:02:43.581Z,0.00
2018-04-30T03:03:43.646Z,0.00
2018-04-30T03:04:43.697Z,0.00
2018-04-30T03:05:43.716Z,0.00
2018-04-30T03:06:43.771Z,0.00
2018-04-30T03:07:43.812Z,0.00
2018-04-30T03:08:43.858Z,0.00
2018-04-30T03:09:44.037Z,0.00
2018-04-30T03:10:43.954Z,0.00
2018-04-30T03:11:44.002Z,0.00
2018-04-30T03:12:44.049Z,0.00
2018-04-30T03:13:44.096Z,0.00
2018-04-30T03:14:44.174Z,0.00
2018-04-30T03:15:44.191Z,0.00
2018-04-30T03:16:44.242Z,0.00
2018-04-30T03:17:44.290Z,0.00
2018-04-30T03:18:44.344Z,0.00
2018-04-30T03:19:44.409Z,0.00
2018-04-30T03:20:44.428Z,0.00
2018-04-30T03:21:44.485Z,0.00
2018-04-30T03:22:44.522Z,0.00
2018-04-30T03:23:44.576Z,0.00
2018-04-30T03:24:44.643Z,0.00
2018-04-30T03:25:44.667Z,0.00
2018-04-30T03:26:44.737Z,0.00
2018-04-30T03:27:44.761Z,0.00
2018-04-30T03:28:44.807Z,0.00
2018-04-30T03:29:44.853Z,0.00
2018-04-30T03:30:44.929Z,0.00
2018-04-30T03:31:44.951Z,0.00
2018-04-30T03:32:44.997Z,0.00
2018-04-30T03:33:45.047Z,0.00
2018-04-30T03:34:45.096Z,0.00
2018-04-30T03:35:45.162Z,0.00
2018-04-30T03:36:45.215Z,0.00
2018-04-30T03:37:45.235Z,0.00
2018-04-30T03:38:45.282Z,0.00
2018-04-30T03:39:45.333Z,0.00
2018-04-30T03:40:45.415Z,0.00
2018-04-30T03:41:45.424Z,0.00
2018-04-30T03:42:45.472Z,0.00
2018-04-30T03:43:45.518Z,0.00
2018-04-30T03:44:45.567Z,0.00
2018-04-30T03:45:45.644Z,0.00
2018-04-30T03:46:45.664Z,0.00
2018-04-30T03:47:45.731Z,0.00
2018-04-30T03:48:45.759Z,0.00
2018-04-30T03:49:45.828Z,0.00
2018-04-30T03:50:45.875Z,0.00
2018-04-30T03:51:45.912Z,0.00
2018-04-30T03:52:45.971Z,0.00
2018-04-30T03:53:45.993Z,0.00
2018-04-30T03:54:46.039Z,0.00
2018-04-30T03:55:46.089Z,0.00
2018-04-30T03:56:46.158Z,0.00
2018-04-30T03:57:46.180Z,0.00
2018-04-30T03:58:46.253Z,0.00
2018-04-30T03:59:46.282Z,0.00
2018-04-30T04:00:46.327Z,0.00
2018-04-30T04:01:46.396Z,0.00
2018-04-30T04:02:46.418Z,0.00
2018-04-30T04:03:46.492Z,0.00
2018-04-30T04:04:46.517Z,0.00
2018-04-30T04:05:46.570Z,0.00
2018-04-30T04:06:46.649Z,0.00
2018-04-30T04:07:46.655Z,5.63
2018-04-30T04:08:46.737Z,5.63
2018-04-30T04:09:46.749Z,5.63
2018-04-30T04:10:46.801Z,5.63
2018-04-30T04:11:46.868Z,5.63
2018-04-30T04:12:46.956Z,5.63
2018-04-30T04:13:46.962Z,5.63
2018-04-30T04:14:46.987Z,5.63
2018-04-30T04:15:47.033Z,5.63
2018-04-30T04:16:47.082Z,5.63
2018-04-30T04:17:47.158Z,5.63
2018-04-30T04:18:47.179Z,5.63
2018-04-30T04:19:47.229Z,11.25
2018-04-30T04:20:47.271Z,11.25
2018-04-30T04:21:47.319Z,11.25
2018-04-30T04:22:47.390Z,11.25
2018-04-30T04:23:47.426Z,11.25
2018-04-30T04:24:47.536Z,11.25
2018-04-30T04:25:47.507Z,11.25
2018-04-30T04:26:47.556Z,16.88
2018-04-30T04:27:47.638Z,16.88
2018-04-30T04:28:47.648Z,16.88
2018-04-30T04:29:47.695Z,16.88
2018-04-30T04:30:47.743Z,16.88
2018-04-30T04:31:47.791Z,16.88
2018-04-30T04:32:47.869Z,16.88
2018-04-30T04:33:47.885Z,16.88
2018-04-30T04:34:47.933Z,16.88
2018-04-30T04:35:47.981Z,16.88
2018-04-30T04:36:48.027Z,22.50
2018-04-30T04:37:48.105Z,22.50
2018-04-30T04:38:48.131Z,22.50
2018-04-30T04:39:48.170Z,22.50
2018-04-30T04:40:48.217Z,22.50
2018-04-30T04:41:48.337Z,22.50
2018-04-30T04:42:48.334Z,22.50
2018-04-30T04:43:48.358Z,22.50
2018-04-30T04:44:48.406Z,22.50
2018-04-30T04:45:48.455Z,22.50
2018-04-30T04:46:48.500Z,28.13
2018-04-30T04:47:48.577Z,28.13
2018-04-30T04:48:48.593Z,33.75
2018-04-30T04:49:48.642Z,33.75
2018-04-30T04:50:48.691Z,39.38
2018-04-30T04:51:48.735Z,39.38
2018-04-30T04:52:48.814Z,45.00
2018-04-30T04:53:48.830Z,50.63
2018-04-30T04:54:48.878Z,50.63
2018-04-30T04:55:48.927Z,50.63
2018-04-30T04:56:48.973Z,56.25
2018-04-30T04:57:49.059Z,56.25
2018-04-30T04:58:49.069Z,56.25
2018-04-30T04:59:49.117Z,61.88
2018-04-30T05:00:49.167Z,67.50
2018-04-30T05:01:49.209Z,67.50
2018-04-30T05:02:49.294Z,73.13
2018-04-30T05:03:49.304Z,78.75
2018-04-30T05:04:49.366Z,78.75
2018-04-30T05:05:49.398Z,84.38
2018-04-30T05:06:49.445Z,84.38
2018-04-30T05:07:49.535Z,84.38
2018-04-30T05:08:49.541Z,84.38
2018-04-30T05:09:49.589Z,90.00
2018-04-30T05:10:49.646Z,90.00
2018-04-30T05:11:49.684Z,95.63
2018-04-30T05:12:49.755Z,95.63
2018-04-30T05:13:49.802Z,101.25
2018-04-30T05:14:49.826Z,101.25
2018-04-30T05:15:49.873Z,106.88
2018-04-30T05:16:49.920Z,106.88
2018-04-30T05:17:49.965Z,112.50
2018-04-30T05:18:50.038Z,118.13
2018-04-30T05:19:50.066Z,118.13
2018-04-30T05:20:50.119Z,118.13
2018-04-30T05:21:50.154Z,118.13
2018-04-30T05:22:50.212Z,123.75
2018-04-30T05:23:50.278Z,123.75
2018-04-30T05:24:50.310Z,123.75
2018-04-30T05:25:50.347Z,123.75
2018-04-30T05:26:50.393Z,129.38
2018-04-30T05:27:50.438Z,129.38
2018-04-30T05:28:50.512Z,129.38
2018-04-30T05:29:50.533Z,129.38
2018-04-30T05:30:50.578Z,129.38
2018-04-30T05:31:50.629Z,135.00
2018-04-30T05:32:50.680Z,135.00
2018-04-30T05:33:50.754Z,135.00
2018-04-30T05:34:50.800Z,135.00
2018-04-30T05:35:50.817Z,135.00
2018-04-30T05:36:50.864Z,140.63
2018-04-30T05:37:50.910Z,140.63
2018-04-30T05:38:50.956Z,140.63
2018-04-30T05:39:51.042Z,140.63
2018-04-30T05:40:51.056Z,140.63
2018-04-30T05:41:51.102Z,146.25
2018-04-30T05:42:51.145Z,146.25
2018-04-30T05:43:51.195Z,146.25
2018-04-30T05:44:51.270Z,146.25
2018-04-30T05:45:51.287Z,146.25
2018-04-30T05:46:51.348Z,151.88
2018-04-30T05:47:51.386Z,151.88
2018-04-30T05:48:51.430Z,151.88
2018-04-30T05:49:51.501Z,151.88
2018-04-30T05:50:51.546Z,151.88
2018-04-30T05:51:51.572Z,157.50
2018-04-30T05:52:51.618Z,157.50
2018-04-30T05:53:51.668Z,157.50
2018-04-30T05:54:51.713Z,157.50
2018-04-30T05:55:51.783Z,157.50
2018-04-30T05:56:51.806Z,163.13
2018-04-30T05:57:51.855Z,163.13
2018-04-30T05:58:51.901Z,163.13
2018-04-30T05:59:51.950Z,163.13
2018-04-30T06:00:52.034Z,163.13
2018-04-30T06:01:52.043Z,168.75
2018-04-30T06:02:52.092Z,168.75
2018-04-30T06:03:52.141Z,168.75
2018-04-30T06:04:52.186Z,168.75
2018-04-30T06:05:52.261Z,168.75
2018-04-30T06:06:52.299Z,174.38
2018-04-30T06:07:52.328Z,174.38
2018-04-30T06:08:52.375Z,174.38
2018-04-30T06:09:52.421Z,174.38
2018-04-30T06:10:52.500Z,174.38
2018-04-30T06:11:52.516Z,180.00
2018-04-30T06:12:52.564Z,180.00
2018-04-30T06:13:52.608Z,180.00
2018-04-30T06:14:52.660Z,180.00
2018-04-30T06:15:52.728Z,180.00
2018-04-30T06:16:52.754Z,185.63
2018-04-30T06:17:52.861Z,185.63
2018-04-30T06:18:52.845Z,191.25
2018-04-30T06:19:52.893Z,191.25
2018-04-30T06:20:52.941Z,196.88
2018-04-30T06:21:52.987Z,202.50
2018-04-30T06:22:53.064Z,213.75
2018-04-30T06:23:53.618Z,191.25
2018-04-30T06:24:53.133Z,196.88
2018-04-30T06:25:53.178Z,196.88
2018-04-30T06:26:53.321Z,202.50
2018-04-30T06:27:53.312Z,213.75
2018-04-30T06:28:53.324Z,213.75
2018-04-30T06:29:53.366Z,213.75
2018-04-30T06:30:53.416Z,208.13
2018-04-30T06:31:53.473Z,213.75
2018-04-30T06:32:53.545Z,540.00
2018-04-30T06:33:53.561Z,956.25
2018-04-30T06:34:53.612Z,961.88
2018-04-30T06:35:53.730Z,984.38
2018-04-30T06:36:53.705Z,1018.13
2018-04-30T06:37:53.774Z,1035.00
2018-04-30T06:38:53.828Z,1063.13
2018-04-30T06:39:53.847Z,1096.88
2018-04-30T06:40:53.897Z,1141.88
2018-04-30T06:41:53.941Z,1170.00
2018-04-30T06:42:53.988Z,1209.38
2018-04-30T06:43:54.058Z,1248.75
2018-04-30T06:44:54.088Z,1276.88
2018-04-30T06:45:54.134Z,1186.88
2018-04-30T06:46:54.180Z,950.63
2018-04-30T06:47:54.236Z,967.50
2018-04-30T06:48:54.317Z,478.13
2018-04-30T06:49:54.330Z,1411.88
2018-04-30T06:50:54.376Z,1490.63
2018-04-30T06:51:54.426Z,1355.63
2018-04-30T06:52:54.476Z,1530.00
2018-04-30T06:53:54.554Z,1327.50
2018-04-30T06:54:54.573Z,540.00
2018-04-30T06:55:54.619Z,1035.00
2018-04-30T06:56:54.671Z,1625.63
2018-04-30T06:57:54.717Z,945.00
2018-04-30T06:58:54.823Z,1816.88
2018-04-30T06:59:54.818Z,1788.75
2018-04-30T07:00:54.864Z,1873.13
2018-04-30T07:01:54.913Z,1800.00
2018-04-30T07:02:54.965Z,1721.25
2018-04-30T07:03:55.037Z,1670.63
2018-04-30T07:04:55.099Z,1648.13
2018-04-30T07:05:55.116Z,1575.00
2018-04-30T07:06:55.161Z,1546.88
2018-04-30T07:07:55.211Z,1507.50
2018-04-30T07:08:55.262Z,1524.38
2018-04-30T07:09:55.335Z,1485.00
2018-04-30T07:10:55.361Z,1445.63
2018-04-30T07:11:55.427Z,1406.25
2018-04-30T07:12:55.462Z,1383.75
2018-04-30T07:13:55.510Z,1383.75
2018-04-30T07:14:55.590Z,1400.63
2018-04-30T07:15:55.615Z,1434.38
2018-04-30T07:16:55.661Z,1468.13
2018-04-30T07:17:55.712Z,1513.13
2018-04-30T07:18:55.764Z,1563.75
2018-04-30T07:19:55.837Z,1625.63
2018-04-30T07:20:55.887Z,1670.63
2018-04-30T07:21:55.916Z,1693.13
2018-04-30T07:22:55.966Z,1732.50
2018-04-30T07:23:56.014Z,1771.88
2018-04-30T07:24:56.068Z,1771.88
2018-04-30T07:25:56.143Z,1822.50
2018-04-30T07:26:56.168Z,1850.63
2018-04-30T07:27:56.318Z,1850.63
2018-04-30T07:28:56.272Z,1816.88
2018-04-30T07:29:56.318Z,1794.38
2018-04-30T07:30:56.394Z,1828.13
2018-04-30T07:31:56.474Z,1732.50
2018-04-30T07:32:56.478Z,1890.00
2018-04-30T07:33:56.524Z,1046.25
2018-04-30T07:34:56.580Z,630.00
2018-04-30T07:35:56.654Z,585.00
2018-04-30T07:36:56.681Z,753.75
2018-04-30T07:37:56.730Z,1743.75
2018-04-30T07:38:56.782Z,1929.38
2018-04-30T07:39:56.829Z,731.25
2018-04-30T07:40:56.913Z,2098.13
2018-04-30T07:41:56.933Z,1333.13
2018-04-30T07:42:56.980Z,2086.88
2018-04-30T07:43:57.033Z,2176.88
2018-04-30T07:44:57.086Z,2272.50
2018-04-30T07:45:57.165Z,2373.75
2018-04-30T07:46:57.186Z,2486.25
2018-04-30T07:47:57.271Z,2565.00
2018-04-30T07:48:57.289Z,2424.38
2018-04-30T07:49:57.344Z,2790.00
2018-04-30T07:50:57.393Z,2823.75
2018-04-30T07:51:57.445Z,2936.25
2018-04-30T07:52:57.519Z,2981.25
2018-04-30T07:53:57.544Z,2896.88
2018-04-30T07:54:57.595Z,2925.00
2018-04-30T07:55:57.649Z,2992.50
2018-04-30T07:56:57.739Z,3065.63
2018-04-30T07:57:57.749Z,3251.25
2018-04-30T07:58:57.800Z,3712.50
2018-04-30T07:59:57.852Z,4033.13
2018-04-30T08:00:57.904Z,4145.63
2018-04-30T08:01:57.996Z,3903.75
2018-04-30T08:02:58.066Z,3706.88
2018-04-30T08:03:58.058Z,3600.00
2018-04-30T08:04:58.111Z,3217.50
2018-04-30T08:05:58.161Z,2947.50
2018-04-30T08:06:58.244Z,2683.13
2018-04-30T08:07:58.265Z,2514.38
2018-04-30T08:08:58.318Z,2244.38
2018-04-30T08:09:58.372Z,2176.88
2018-04-30T08:10:58.428Z,2233.13
2018-04-30T08:11:58.498Z,2261.25
2018-04-30T08:12:58.532Z,2233.13
2018-04-30T08:13:58.588Z,2272.50
2018-04-30T08:14:58.737Z,2300.63
2018-04-30T08:15:58.686Z,2306.25
2018-04-30T08:16:58.736Z,2317.50
2018-04-30T08:17:58.796Z,2340.00
2018-04-30T08:18:58.842Z,2356.88
2018-04-30T08:19:58.919Z,2362.50
2018-04-30T08:20:58.948Z,2356.88
2018-04-30T08:21:58.997Z,2385.00
2018-04-30T08:22:59.051Z,2396.25
2018-04-30T08:23:59.127Z,2407.50
2018-04-30T08:24:59.157Z,2430.00
2018-04-30T08:25:59.678Z,2446.88
2018-04-30T08:26:59.263Z,2452.50
2018-04-30T08:27:59.320Z,2475.00
2018-04-30T08:28:59.375Z,2486.25
2018-04-30T08:29:59.462Z,2503.13
2018-04-30T08:30:59.475Z,2486.25
2018-04-30T08:31:59.527Z,2480.63
2018-04-30T08:32:59.579Z,2475.00
2018-04-30T08:33:59.630Z,2458.13
2018-04-30T08:34:59.727Z,2452.50
2018-04-30T08:35:59.739Z,2435.63
2018-04-30T08:36:59.812Z,2430.00
2018-04-30T08:37:59.844Z,2418.75
2018-04-30T08:38:59.896Z,2401.88
2018-04-30T08:39:59.973Z,2401.88
2018-04-30T08:41:00.003Z,2390.63
2018-04-30T08:42:00.084Z,2385.00
2018-04-30T08:43:00.111Z,2407.50
2018-04-30T08:44:00.166Z,2441.25
2018-04-30T08:45:00.288Z,2463.75
2018-04-30T08:46:00.293Z,2475.00
2018-04-30T08:47:00.352Z,2463.75
2018-04-30T08:48:00.383Z,2480.63
2018-04-30T08:49:00.432Z,2469.38
2018-04-30T08:50:00.481Z,2486.25
2018-04-30T08:51:00.535Z,2514.38
2018-04-30T08:52:00.651Z,2542.50
2018-04-30T08:53:00.641Z,2536.88
2018-04-30T08:54:00.694Z,2565.00
2018-04-30T08:55:00.750Z,2610.00
2018-04-30T08:56:00.807Z,2621.25
2018-04-30T08:57:00.883Z,2581.88
2018-04-30T08:58:00.934Z,2525.63
2018-04-30T08:59:00.966Z,2497.50
2018-04-30T09:00:01.017Z,2424.38
2018-04-30T09:01:01.070Z,2345.63
2018-04-30T09:02:01.125Z,2266.88
2018-04-30T09:03:01.199Z,2160.00
2018-04-30T09:04:01.231Z,2036.25
2018-04-30T09:05:01.287Z,1935.00
2018-04-30T09:06:01.340Z,1794.38
2018-04-30T09:07:01.394Z,1665.00
2018-04-30T09:08:01.477Z,1580.63
2018-04-30T09:09:01.527Z,1501.88
2018-04-30T09:10:01.555Z,1451.25
2018-04-30T09:11:01.607Z,1423.13
2018-04-30T09:12:01.658Z,1400.63
2018-04-30T09:13:01.742Z,1366.88
2018-04-30T09:14:01.790Z,1327.50
2018-04-30T09:15:01.836Z,1299.38
2018-04-30T09:16:01.875Z,1271.25
2018-04-30T09:17:01.929Z,1248.75
2018-04-30T09:18:01.981Z,1226.25
2018-04-30T09:19:02.069Z,1203.75
2018-04-30T09:20:02.092Z,1198.13
2018-04-30T09:21:02.145Z,1192.50
2018-04-30T09:22:02.197Z,1186.88
2018-04-30T09:23:02.250Z,1175.63
2018-04-30T09:24:02.343Z,1175.63
2018-04-30T09:25:02.357Z,1175.63
2018-04-30T09:26:02.415Z,1186.88
2018-04-30T09:27:02.467Z,1181.25
2018-04-30T09:28:02.545Z,1192.50
2018-04-30T09:29:02.616Z,1203.75
2018-04-30T09:30:02.629Z,1248.75
2018-04-30T09:31:02.681Z,1310.63
2018-04-30T09:32:02.737Z,1350.00
2018-04-30T09:33:02.789Z,1434.38
2018-04-30T09:34:02.877Z,731.25
2018-04-30T09:35:02.953Z,1580.63
2018-04-30T09:36:02.955Z,1513.13
2018-04-30T09:37:03.006Z,1541.25
2018-04-30T09:38:03.062Z,1665.00
2018-04-30T09:39:03.135Z,793.13
2018-04-30T09:40:03.192Z,1766.25
2018-04-30T09:41:03.226Z,1828.13
2018-04-30T09:42:03.281Z,1867.50
2018-04-30T09:43:03.331Z,1974.38
2018-04-30T09:44:03.386Z,2103.75
2018-04-30T09:45:03.470Z,2193.75
2018-04-30T09:46:03.492Z,2295.00
2018-04-30T09:47:03.545Z,2362.50
2018-04-30T09:48:03.605Z,2446.88
2018-04-30T09:49:03.657Z,2396.25
2018-04-30T09:50:03.746Z,2463.75
2018-04-30T09:51:03.764Z,2593.13
2018-04-30T09:52:03.816Z,2643.75
2018-04-30T09:53:03.874Z,2750.63
2018-04-30T09:54:03.925Z,2835.00
2018-04-30T09:55:04.005Z,2919.38
2018-04-30T09:56:04.060Z,3003.75
2018-04-30T09:57:04.091Z,3076.88
2018-04-30T09:58:04.141Z,3150.00
2018-04-30T09:59:04.201Z,3223.13
2018-04-30T10:00:04.293Z,2368.13
2018-04-30T10:01:04.382Z,3268.13
2018-04-30T10:02:04.354Z,3037.50
2018-04-30T10:03:04.413Z,2885.63
2018-04-30T10:04:04.465Z,2711.25
2018-04-30T10:05:04.550Z,2553.75
2018-04-30T10:06:04.572Z,2435.63
2018-04-30T10:07:04.628Z,2176.88
2018-04-30T10:08:04.679Z,2205.00
2018-04-30T10:09:04.734Z,2137.50
2018-04-30T10:10:04.810Z,2047.50
2018-04-30T10:11:04.898Z,1991.25
2018-04-30T10:12:04.895Z,1935.00
2018-04-30T10:13:04.950Z,1918.13
2018-04-30T10:14:05.003Z,1901.25
2018-04-30T10:15:05.066Z,1929.38
2018-04-30T10:16:05.143Z,2036.25
2018-04-30T10:17:05.165Z,2115.00
2018-04-30T10:18:05.219Z,2255.63
2018-04-30T10:19:05.275Z,2390.63
2018-04-30T10:20:05.327Z,2621.25
2018-04-30T10:21:05.405Z,2728.13
2018-04-30T10:22:05.462Z,2896.88
2018-04-30T10:23:05.492Z,3043.13
2018-04-30T10:24:05.546Z,3183.75
2018-04-30T10:25:05.600Z,3346.88
2018-04-30T10:26:05.651Z,3431.25
2018-04-30T10:27:05.728Z,3431.25
2018-04-30T10:28:05.760Z,3341.25
2018-04-30T10:29:05.832Z,3279.38
2018-04-30T10:30:05.868Z,3223.13
2018-04-30T10:31:05.923Z,3060.00
2018-04-30T10:32:06.013Z,2891.25
2018-04-30T10:33:06.044Z,2716.88
2018-04-30T10:34:06.086Z,2548.13
2018-04-30T10:35:06.144Z,2385.00
2018-04-30T10:36:06.201Z,2199.38
2018-04-30T10:37:06.271Z,2058.75
2018-04-30T10:38:06.341Z,1901.25
2018-04-30T10:39:06.400Z,1783.13
2018-04-30T10:40:06.413Z,1665.00
2018-04-30T10:41:06.478Z,1597.50
2018-04-30T10:42:06.527Z,1558.13
2018-04-30T10:43:06.571Z,1563.75
2018-04-30T10:44:06.661Z,1575.00
2018-04-30T10:45:06.688Z,1591.88
2018-04-30T10:46:06.861Z,1614.38
2018-04-30T10:47:06.790Z,1653.75
2018-04-30T10:48:06.845Z,1676.25
2018-04-30T10:49:06.922Z,1726.88
2018-04-30T10:50:06.953Z,1766.25
2018-04-30T10:51:07.008Z,1811.25
2018-04-30T10:52:07.060Z,1867.50
2018-04-30T10:53:07.114Z,1884.38
2018-04-30T10:54:07.192Z,1935.00
2018-04-30T10:55:07.248Z,1974.38
2018-04-30T10:56:07.281Z,2013.75
2018-04-30T10:57:07.338Z,2064.38
2018-04-30T10:58:07.387Z,2086.88
2018-04-30T10:59:07.480Z,2131.88
2018-04-30T11:00:07.496Z,2193.75
2018-04-30T11:01:07.551Z,2255.63
2018-04-30T11:02:07.608Z,2328.75
2018-04-30T11:03:07.664Z,2390.63
2018-04-30T11:04:07.740Z,2463.75
2018-04-30T11:05:07.771Z,2536.88
2018-04-30T11:06:07.888Z,2576.25
2018-04-30T11:07:07.881Z,2610.00
2018-04-30T11:08:07.934Z,2660.63
2018-04-30T11:09:08.023Z,2688.75
2018-04-30T11:10:08.044Z,2705.63
2018-04-30T11:11:08.102Z,2722.50
2018-04-30T11:12:08.153Z,2711.25
2018-04-30T11:13:08.211Z,2694.38
2018-04-30T11:14:08.307Z,2655.00
2018-04-30T11:15:08.320Z,2643.75
2018-04-30T11:16:08.375Z,2626.88
2018-04-30T11:17:08.433Z,2626.88
2018-04-30T11:18:08.487Z,2632.50
2018-04-30T11:19:08.573Z,2649.38
2018-04-30T11:20:08.598Z,2700.00
2018-04-30T11:21:08.653Z,2750.63
2018-04-30T11:22:08.705Z,2812.50
2018-04-30T11:23:08.761Z,2868.75
2018-04-30T11:24:08.856Z,2964.38
2018-04-30T11:25:08.874Z,3082.50
2018-04-30T11:26:08.928Z,3150.00
2018-04-30T11:27:08.986Z,3245.63
2018-04-30T11:28:09.045Z,3313.13
2018-04-30T11:29:09.119Z,3408.75
2018-04-30T11:30:09.189Z,3487.50
2018-04-30T11:31:09.206Z,3555.00
2018-04-30T11:32:09.261Z,3605.63
2018-04-30T11:33:09.322Z,3695.63
2018-04-30T11:34:09.453Z,3751.88
2018-04-30T11:35:09.458Z,3830.63
2018-04-30T11:36:09.483Z,3870.00
2018-04-30T11:37:09.543Z,3886.88
2018-04-30T11:38:09.593Z,3875.63
2018-04-30T11:39:09.652Z,3864.38
2018-04-30T11:40:09.745Z,3881.25
2018-04-30T11:41:09.769Z,3870.00
2018-04-30T11:42:09.818Z,3864.38
2018-04-30T11:43:09.881Z,3853.13
2018-04-30T11:44:09.931Z,3870.00
2018-04-30T11:45:10.025Z,3847.50
2018-04-30T11:46:10.041Z,3796.88
2018-04-30T11:47:10.170Z,3780.00
2018-04-30T11:48:10.159Z,3757.50
2018-04-30T11:49:10.213Z,3740.63
2018-04-30T11:50:10.297Z,3763.13
2018-04-30T11:51:10.327Z,3768.75
2018-04-30T11:52:10.379Z,3785.63
2018-04-30T11:53:10.437Z,3774.38
2018-04-30T11:54:10.489Z,3729.38
2018-04-30T11:55:10.576Z,3701.25
2018-04-30T11:56:10.602Z,3667.50
2018-04-30T11:57:10.659Z,3633.75
2018-04-30T11:58:10.718Z,3594.38
2018-04-30T11:59:10.774Z,3560.63
2018-04-30T12:00:10.864Z,3526.88
2018-04-30T12:01:10.890Z,3481.88
2018-04-30T12:02:10.941Z,3436.88
2018-04-30T12:03:10.998Z,3380.63
2018-04-30T12:04:11.052Z,3335.63
2018-04-30T12:05:11.140Z,3285.00
2018-04-30T12:06:11.192Z,3240.00
2018-04-30T12:07:11.266Z,3189.38
2018-04-30T12:08:11.280Z,3166.88
2018-04-30T12:09:11.339Z,3133.13
2018-04-30T12:10:11.395Z,3121.88
2018-04-30T12:11:11.482Z,3093.75
2018-04-30T12:12:11.507Z,3065.63
2018-04-30T12:13:11.563Z,3043.13
2018-04-30T12:14:11.622Z,3015.00
2018-04-30T12:15:11.685Z,2964.38
2018-04-30T12:16:11.762Z,2958.75
2018-04-30T12:17:11.825Z,2919.38
2018-04-30T12:18:11.850Z,2896.88
2018-04-30T12:19:11.912Z,2891.25
2018-04-30T12:20:11.963Z,2874.38
2018-04-30T12:21:12.019Z,2829.38
2018-04-30T12:22:12.152Z,2795.63
2018-04-30T12:23:12.135Z,2767.50
2018-04-30T12:24:12.255Z,2745.00
2018-04-30T12:25:12.249Z,2739.38
2018-04-30T12:26:12.309Z,2739.38
2018-04-30T12:27:12.395Z,2739.38
2018-04-30T12:28:12.422Z,2733.75
2018-04-30T12:29:12.481Z,2728.13
2018-04-30T12:30:12.534Z,2750.63
2018-04-30T12:31:12.594Z,2778.75
2018-04-30T12:32:12.682Z,2812.50
2018-04-30T12:33:12.715Z,2846.25
2018-04-30T12:34:12.772Z,2874.38
2018-04-30T12:35:12.824Z,2896.88
2018-04-30T12:36:12.892Z,2930.63